Time;durP1;ratioP1;P1;durP2;ratioP2;P2;SDS_P1;SDS_P2;PMS_P1;PMS_P2;Temp;Humidity;BMP_temperature;BMP_pressure;BME280_temperature;BME280_humidity;BME280_pressure;Samples;Min_cycle;Max_cycle;Signal;HPM_P1;HPM_P2
2022/03/20 00:01:22;;;;;;;45.35;37.05;;;4.00;99.90;;;;;;4981151;28;20489;-72
2022/03/20 00:03:49;;;;;;;41.10;36.00;;;4.00;99.90;;;;;;4995882;28;20057;-70
2022/03/20 00:06:16;;;;;;;42.17;34.25;;;3.90;99.90;;;;;;4994144;28;20057;-71
2022/03/20 00:08:43;;;;;;;45.53;35.80;;;3.80;99.90;;;;;;4996687;28;20049;-72
2022/03/20 00:11:09;;;;;;;43.53;35.22;;;3.90;99.90;;;;;;5005519;28;20553;-71
2022/03/20 00:13:36;;;;;;;44.10;36.92;;;3.80;99.90;;;;;;5013288;28;20561;-72
2022/03/20 00:16:05;;;;;;;44.33;36.75;;;3.90;99.90;;;;;;5014501;28;20052;-70
2022/03/20 00:18:32;;;;;;;45.00;34.38;;;3.80;99.90;;;;;;5032846;28;20568;-71
2022/03/20 00:21:00;;;;;;;45.13;36.85;;;3.80;99.90;;;;;;5028498;28;20057;-72
2022/03/20 00:23:29;;;;;;;44.85;37.72;;;3.70;99.90;;;;;;5033211;28;20599;-72
2022/03/20 00:25:56;;;;;;;45.65;37.55;;;3.70;99.90;;;;;;5032494;28;20041;-70
2022/03/20 00:28:25;;;;;;;41.40;36.90;;;3.70;99.90;;;;;;5032566;28;20048;-70
2022/03/20 00:30:53;;;;;;;47.13;38.00;;;3.60;99.90;;;;;;5008207;28;20041;-70
2022/03/20 00:33:20;;;;;;;45.42;37.08;;;3.50;99.90;;;;;;4992770;28;20055;-72
2022/03/20 00:35:47;;;;;;;46.85;37.13;;;3.50;99.90;;;;;;5032009;28;20594;-71
2022/03/20 00:38:14;;;;;;;40.08;35.08;;;3.50;99.90;;;;;;5013979;28;20056;-72
2022/03/20 00:40:42;;;;;;;42.88;35.08;;;3.50;99.90;;;;;;5008648;28;20090;-73
2022/03/20 00:43:09;;;;;;;40.65;35.85;;;3.40;99.90;;;;;;5012485;28;20556;-69
2022/03/20 00:45:36;;;;;;;44.03;36.72;;;3.50;99.90;;;;;;5010838;28;20045;-72
2022/03/20 00:48:03;;;;;;;44.13;36.55;;;3.50;99.90;;;;;;5012124;28;20050;-72
2022/03/20 00:50:30;;;;;;;43.05;36.47;;;3.40;99.90;;;;;;4999815;28;20491;-69
2022/03/20 00:52:58;;;;;;;40.70;35.50;;;3.40;99.90;;;;;;5031855;28;20296;-70
2022/03/20 00:55:25;;;;;;;45.15;36.10;;;3.30;99.90;;;;;;5030751;28;20045;-71
2022/03/20 00:57:52;;;;;;;43.38;35.72;;;3.30;99.90;;;;;;5014070;28;20049;-69
2022/03/20 01:00:19;;;;;;;41.47;35.15;;;3.30;99.90;;;;;;5003217;28;20065;-71
2022/03/20 01:02:46;;;;;;;42.70;35.78;;;3.30;99.90;;;;;;5012682;28;20447;-70
2022/03/20 01:05:14;;;;;;;43.08;36.38;;;3.30;99.90;;;;;;5031482;28;20064;-72
2022/03/20 01:07:43;;;;;;;42.10;36.47;;;3.20;99.90;;;;;;5031420;28;20135;-69
2022/03/20 01:10:11;;;;;;;46.75;36.63;;;3.10;99.90;;;;;;5011787;28;20385;-72
2022/03/20 01:12:39;;;;;;;43.00;36.90;;;3.10;99.90;;;;;;5011384;28;20256;-71
2022/03/20 01:15:08;;;;;;;41.70;35.47;;;3.10;99.90;;;;;;5012696;28;20420;-69
2022/03/20 01:17:35;;;;;;;49.42;36.95;;;3.10;99.90;;;;;;5014314;28;20045;-73
2022/03/20 01:20:04;;;;;;;42.97;37.20;;;3.10;99.90;;;;;;5012072;28;20477;-71
2022/03/20 01:22:31;;;;;;;46.50;37.13;;;3.10;99.90;;;;;;5031202;28;20118;-69
2022/03/20 01:24:58;;;;;;;48.00;37.72;;;3.10;99.90;;;;;;5012944;28;20081;-69
2022/03/20 01:27:24;;;;;;;42.03;37.03;;;3.00;99.90;;;;;;5012774;28;20227;-70
2022/03/20 01:29:51;;;;;;;43.50;36.80;;;3.00;99.90;;;;;;5029543;28;20346;-69
2022/03/20 01:32:18;;;;;;;40.30;35.65;;;3.10;99.90;;;;;;5011791;28;20048;-71
2022/03/20 01:34:45;;;;;;;42.13;37.00;;;3.10;99.90;;;;;;5012224;28;20040;-70
2022/03/20 01:37:11;;;;;;;49.47;36.47;;;3.00;99.90;;;;;;5029809;28;20045;-70
2022/03/20 01:42:31;;;;;;;44.70;36.05;;;3.00;99.90;;;;;;5016898;28;20435;-74
2022/03/20 01:44:58;;;;;;;44.38;36.13;;;2.90;99.90;;;;;;5035689;28;20135;-74
2022/03/20 01:47:25;;;;;;;45.00;36.00;;;2.80;99.90;;;;;;5018165;28;20116;-74
2022/03/20 01:49:52;;;;;;;41.67;37.03;;;2.90;99.90;;;;;;5013060;28;20053;-74
2022/03/20 01:52:24;;;;;;;42.25;35.40;;;2.80;99.90;;;;;;5022702;28;20493;-74
2022/03/20 01:54:51;;;;;;;42.40;35.75;;;2.90;99.90;;;;;;5038384;28;20136;-73
2022/03/20 01:57:20;;;;;;;42.60;37.67;;;2.80;99.90;;;;;;5038773;28;20080;-73
2022/03/20 01:59:49;;;;;;;40.30;33.17;;;2.80;99.90;;;;;;5036299;28;20048;-74
2022/03/20 02:02:16;;;;;;;45.17;36.40;;;2.70;99.90;;;;;;5034082;28;20088;-74
2022/03/20 02:04:43;;;;;;;40.20;34.88;;;2.70;99.90;;;;;;5038842;28;20133;-74
2022/03/20 02:07:10;;;;;;;42.58;35.72;;;2.70;99.90;;;;;;5021852;28;20395;-74
2022/03/20 02:09:40;;;;;;;43.05;35.03;;;2.70;99.90;;;;;;5039626;28;20061;-74
2022/03/20 02:12:07;;;;;;;41.72;36.05;;;2.60;99.90;;;;;;5038508;28;20041;-74
2022/03/20 02:14:34;;;;;;;46.30;33.97;;;2.70;99.90;;;;;;5038204;28;20450;-73
2022/03/20 02:17:02;;;;;;;38.05;33.88;;;2.60;99.90;;;;;;5038593;28;20134;-73
2022/03/20 02:19:30;;;;;;;48.42;34.40;;;2.60;99.90;;;;;;5038655;28;20048;-74
2022/03/20 02:21:57;;;;;;;43.70;33.85;;;2.60;99.90;;;;;;5038364;28;20064;-75
2022/03/20 02:24:33;;;;;;;45.28;34.38;;;2.60;99.90;;;;;;5041956;28;20152;-74
2022/03/20 02:27:06;;;;;;;46.33;35.33;;;2.50;99.90;;;;;;5039866;28;20080;-74
2022/03/20 02:29:33;;;;;;;44.33;35.83;;;2.50;99.90;;;;;;5042309;28;20052;-74
2022/03/20 02:32:01;;;;;;;41.25;33.83;;;2.40;99.90;;;;;;5040801;28;20127;-74
2022/03/20 02:34:30;;;;;;;43.78;33.83;;;2.30;99.90;;;;;;5021725;28;20103;-74
2022/03/20 02:36:58;;;;;;;45.47;34.38;;;2.30;99.90;;;;;;5042182;28;20071;-73
2022/03/20 02:39:25;;;;;;;44.08;34.53;;;2.20;99.90;;;;;;5041687;28;20048;-74
2022/03/20 02:41:51;;;;;;;42.00;33.97;;;2.20;99.90;;;;;;5024671;28;20916;-73
2022/03/20 02:44:18;;;;;;;42.63;33.35;;;2.10;99.90;;;;;;5042513;28;20088;-73
2022/03/20 02:46:45;;;;;;;43.50;34.85;;;2.10;99.90;;;;;;5042678;28;20781;-73
2022/03/20 02:49:13;;;;;;;45.50;35.08;;;2.10;99.90;;;;;;5046377;28;20056;-74
2022/03/20 02:51:40;;;;;;;44.95;34.85;;;2.20;99.90;;;;;;5045600;28;20102;-74
2022/03/20 02:54:07;;;;;;;44.22;35.55;;;2.30;99.90;;;;;;5024317;28;20049;-73
2022/03/20 02:56:38;;;;;;;40.55;34.17;;;2.30;99.90;;;;;;5044932;28;20041;-74
2022/03/20 02:59:07;;;;;;;44.33;35.15;;;2.40;99.90;;;;;;5061486;28;20114;-74
2022/03/20 03:01:33;;;;;;;39.38;35.17;;;2.50;99.90;;;;;;5041578;28;20041;-73
2022/03/20 03:04:00;;;;;;;40.83;34.05;;;2.40;99.90;;;;;;5043185;28;20053;-74
2022/03/20 03:06:27;;;;;;;41.00;33.72;;;2.50;99.90;;;;;;5042332;28;20048;-74
2022/03/20 03:11:39;;;;;;;;;;;2.60;99.90;;;;;;5041467;28;20041;-74
2022/03/20 03:15:19;;;;;;;37.65;32.75;;;2.70;99.90;;;;;;5041113;28;19924;-74
2022/03/20 03:16:54;;;;;;;38.55;32.15;;;2.60;99.90;;;;;;5022100;28;20253;-74
2022/03/20 03:19:21;;;;;;;39.33;32.15;;;2.60;99.90;;;;;;5023227;28;20060;-74
2022/03/20 03:21:48;;;;;;;38.45;33.90;;;2.60;99.90;;;;;;5022103;28;20132;-73
2022/03/20 03:24:14;;;;;;;39.35;33.10;;;2.70;99.90;;;;;;5014945;28;20115;-74
2022/03/20 03:26:41;;;;;;;40.30;33.97;;;2.70;99.90;;;;;;5024457;28;20463;-74
2022/03/20 03:29:08;;;;;;;38.70;33.25;;;2.80;99.90;;;;;;5040871;28;20284;-73
2022/03/20 03:31:35;;;;;;;37.70;33.58;;;2.80;99.90;;;;;;5040157;28;20099;-74
2022/03/20 03:36:47;;;;;;;38.72;32.22;;;2.70;99.90;;;;;;5042678;28;20680;-74
2022/03/20 03:39:14;;;;;;;43.67;34.78;;;2.80;99.90;;;;;;5041734;28;20075;-74
2022/03/20 03:41:40;;;;;;;37.53;33.30;;;2.80;99.90;;;;;;5036582;28;20132;-74
2022/03/20 03:44:08;;;;;;;39.78;33.20;;;2.70;99.90;;;;;;5049416;28;20526;-74
2022/03/20 03:46:35;;;;;;;38.85;34.47;;;2.80;99.90;;;;;;5039167;28;20073;-74
2022/03/20 03:49:02;;;;;;;41.05;33.97;;;2.80;99.90;;;;;;5051382;28;20109;-74
2022/03/20 03:51:29;;;;;;;41.38;33.70;;;2.70;99.90;;;;;;5060625;28;20132;-74
2022/03/20 03:53:56;;;;;;;41.58;34.40;;;2.70;99.90;;;;;;5076065;28;20082;-74
2022/03/20 03:56:23;;;;;;;37.15;32.90;;;2.80;99.90;;;;;;5040831;28;20041;-74
2022/03/20 03:58:49;;;;;;;40.50;33.55;;;2.80;99.90;;;;;;5023170;28;20164;-74
2022/03/20 04:01:16;;;;;;;36.72;33.08;;;2.80;99.90;;;;;;5030599;28;20053;-74
2022/03/20 04:03:43;;;;;;;39.25;32.95;;;2.80;99.90;;;;;;5040795;28;20041;-74
2022/03/20 04:06:10;;;;;;;35.42;31.05;;;2.80;99.90;;;;;;5039233;28;20465;-74
2022/03/20 04:08:37;;;;;;;38.47;33.83;;;2.80;99.90;;;;;;5040331;28;20087;-75
2022/03/20 04:11:05;;;;;;;36.88;29.98;;;2.90;99.90;;;;;;5038597;28;20283;-74
2022/03/20 04:13:32;;;;;;;38.25;34.17;;;2.80;99.90;;;;;;5031168;28;20045;-74
2022/03/20 04:15:58;;;;;;;38.47;34.30;;;2.80;99.90;;;;;;5035211;28;20080;-74
2022/03/20 04:18:25;;;;;;;35.50;31.77;;;2.80;99.90;;;;;;5033449;28;20704;-74
2022/03/20 04:20:52;;;;;;;39.85;31.88;;;2.80;99.90;;;;;;5037784;28;20090;-74
2022/03/20 04:26:05;;;;;;;37.70;33.60;;;2.80;99.90;;;;;;5038538;28;20526;-74
2022/03/20 04:28:32;;;;;;;38.85;34.88;;;2.80;99.90;;;;;;5055693;28;20053;-74
2022/03/20 04:30:59;;;;;;;34.97;30.98;;;2.70;99.90;;;;;;5035368;28;20044;-74
2022/03/20 04:33:26;;;;;;;40.50;34.08;;;2.70;99.90;;;;;;5039767;28;20048;-73
2022/03/20 04:35:52;;;;;;;41.33;33.30;;;2.70;99.90;;;;;;5038008;28;20045;-73
2022/03/20 04:38:21;;;;;;;40.25;34.40;;;2.70;99.90;;;;;;5023681;28;20045;-74
2022/03/20 04:40:49;;;;;;;42.78;33.78;;;2.60;99.90;;;;;;5037728;28;20511;-74
2022/03/20 04:43:17;;;;;;;40.28;32.40;;;2.70;99.90;;;;;;5044394;28;20536;-73
2022/03/20 04:45:44;;;;;;;40.75;32.92;;;2.60;99.90;;;;;;5037890;28;20515;-76
2022/03/20 04:59:12;;;;;;;;;;;2.50;99.90;;;;;;5040049;28;20057;-75
2022/03/20 05:01:39;;;;;;;40.20;34.28;;;2.60;99.90;;;;;;5036837;28;19920;-74
2022/03/20 05:04:06;;;;;;;44.42;34.55;;;2.60;99.90;;;;;;5040320;28;20099;-75
2022/03/20 05:06:33;;;;;;;42.42;33.53;;;2.50;99.90;;;;;;5021199;28;20048;-75
2022/03/20 05:14:30;;;;;;;;;;;2.50;99.90;;;;;;5038279;28;20052;-75
2022/03/20 05:17:10;;;;;;;41.80;33.90;;;2.50;99.90;;;;;;5054262;28;19924;-75
2022/03/20 05:19:40;;;;;;;37.85;33.33;;;2.50;99.90;;;;;;5021570;28;20056;-75
2022/03/20 05:22:11;;;;;;;42.47;35.22;;;2.50;99.90;;;;;;5039284;28;20103;-75
2022/03/20 05:24:39;;;;;;;40.60;34.80;;;2.50;99.90;;;;;;5038456;28;20057;-74
2022/03/20 05:27:06;;;;;;;41.97;35.35;;;2.50;99.90;;;;;;5037785;28;20072;-75
2022/03/20 05:29:34;;;;;;;43.30;35.92;;;2.50;99.90;;;;;;5036405;28;20130;-75
2022/03/20 05:32:03;;;;;;;42.67;35.33;;;2.50;99.90;;;;;;5019003;28;20046;-75
2022/03/20 05:34:29;;;;;;;37.50;32.22;;;2.40;99.90;;;;;;5037745;28;20135;-75
2022/03/20 05:36:57;;;;;;;39.13;32.90;;;2.40;99.90;;;;;;5038350;28;20406;-75
2022/03/20 05:39:24;;;;;;;42.70;33.67;;;2.40;99.90;;;;;;5053135;28;20106;-75
2022/03/20 05:41:51;;;;;;;47.80;37.17;;;2.50;99.90;;;;;;5046943;28;20100;-75
2022/03/20 05:44:20;;;;;;;42.38;38.00;;;2.60;99.90;;;;;;5017493;28;20059;-74
2022/03/20 05:46:49;;;;;;;41.85;37.00;;;2.60;99.90;;;;;;5021228;28;20065;-75
2022/03/20 05:49:17;;;;;;;46.72;36.30;;;2.50;99.90;;;;;;5035914;28;20048;-75
2022/03/20 05:51:46;;;;;;;40.03;35.17;;;2.50;99.90;;;;;;5037411;28;20107;-75
2022/03/20 05:54:15;;;;;;;40.22;34.55;;;2.50;99.90;;;;;;5020853;28;20052;-75
2022/03/20 05:59:28;;;;;;;40.75;35.50;;;2.50;99.90;;;;;;5037744;28;20052;-74
2022/03/20 06:01:56;;;;;;;38.03;34.08;;;2.50;99.90;;;;;;5036798;28;20057;-74
2022/03/20 06:04:23;;;;;;;44.35;38.22;;;2.50;99.90;;;;;;5038866;28;20053;-75
2022/03/20 06:06:50;;;;;;;40.90;36.42;;;2.60;99.90;;;;;;5036709;28;20423;-75
2022/03/20 06:09:17;;;;;;;43.00;34.95;;;2.60;99.90;;;;;;5038648;28;20095;-74
2022/03/20 06:11:43;;;;;;;43.83;36.95;;;2.60;99.90;;;;;;5033806;28;20051;-75
2022/03/20 06:14:10;;;;;;;38.75;34.58;;;2.60;99.90;;;;;;5041477;28;20049;-74
2022/03/20 06:16:37;;;;;;;41.78;37.30;;;2.60;99.90;;;;;;5056504;28;20065;-75
2022/03/20 06:19:08;;;;;;;47.88;37.42;;;2.60;99.90;;;;;;5023917;28;20053;-74
2022/03/20 06:21:34;;;;;;;41.75;36.97;;;2.70;99.90;;;;;;5041263;28;20106;-75
2022/03/20 06:24:02;;;;;;;43.50;35.22;;;2.70;99.90;;;;;;5042730;28;20056;-74
2022/03/20 06:26:29;;;;;;;44.75;38.28;;;2.80;99.90;;;;;;5040454;28;20053;-75
2022/03/20 06:28:56;;;;;;;42.63;37.97;;;2.80;99.90;;;;;;5040398;28;20495;-74
2022/03/20 06:31:23;;;;;;;39.90;35.50;;;2.70;99.90;;;;;;5032401;28;20529;-74
2022/03/20 06:33:56;;;;;;;46.92;37.88;;;2.80;99.90;;;;;;5037870;28;20045;-74
2022/03/20 06:36:23;;;;;;;44.08;39.17;;;2.80;99.90;;;;;;5056459;28;20073;-74
2022/03/20 06:38:50;;;;;;;47.75;38.45;;;2.90;99.90;;;;;;5040616;28;20060;-74
2022/03/20 06:41:20;;;;;;;48.53;41.15;;;3.00;99.90;;;;;;5036837;28;20047;-74
2022/03/20 06:43:47;;;;;;;46.10;41.25;;;3.00;99.90;;;;;;5048988;28;20640;-74
2022/03/20 06:46:13;;;;;;;41.47;36.70;;;3.00;99.90;;;;;;5041246;28;20048;-74
2022/03/20 06:48:51;;;;;;;51.22;39.88;;;3.10;99.90;;;;;;5040945;28;20446;-74
2022/03/20 06:51:17;;;;;;;54.60;41.28;;;3.20;99.90;;;;;;5040655;28;20075;-74
2022/03/20 06:53:45;;;;;;;45.92;39.80;;;3.20;99.90;;;;;;5041257;28;20052;-74
2022/03/20 06:56:12;;;;;;;52.75;37.78;;;3.30;99.90;;;;;;5041162;28;20041;-74
2022/03/20 06:58:39;;;;;;;45.35;39.65;;;3.30;99.90;;;;;;5041823;28;20077;-74
2022/03/20 07:01:08;;;;;;;44.85;38.78;;;3.40;99.90;;;;;;5037997;28;20538;-74
2022/03/20 07:03:35;;;;;;;51.03;41.83;;;3.40;99.90;;;;;;5054494;28;20300;-74
2022/03/20 07:06:03;;;;;;;46.58;40.92;;;3.50;99.90;;;;;;5039854;28;20074;-74
2022/03/20 07:08:29;;;;;;;51.25;41.47;;;3.60;99.90;;;;;;5042041;28;20045;-75
2022/03/20 07:10:56;;;;;;;52.65;38.60;;;3.60;99.90;;;;;;5038703;28;20052;-73
2022/03/20 07:16:08;;;;;;;50.65;39.92;;;3.70;99.90;;;;;;5040009;28;20515;-74
2022/03/20 07:18:36;;;;;;;41.40;37.03;;;3.70;99.90;;;;;;5056855;28;20304;-74
2022/03/20 07:21:03;;;;;;;52.80;43.10;;;3.80;99.90;;;;;;5039391;28;20132;-74
2022/03/20 07:23:30;;;;;;;49.88;42.03;;;3.80;99.90;;;;;;5040789;28;20435;-74
2022/03/20 07:31:28;;;;;;;;;;;4.00;99.90;;;;;;5046698;28;20425;-74
2022/03/20 07:33:55;;;;;;;45.67;39.95;;;4.20;99.90;;;;;;5041339;28;19921;-73
2022/03/20 07:36:22;;;;;;;50.90;43.20;;;4.10;99.90;;;;;;5037409;28;20049;-74
2022/03/20 07:38:50;;;;;;;48.28;43.10;;;4.20;99.90;;;;;;5056625;28;20151;-75
2022/03/20 07:41:17;;;;;;;47.95;41.97;;;4.30;99.90;;;;;;5056735;22;20051;-74
2022/03/20 07:43:44;;;;;;;49.92;43.00;;;4.40;99.90;;;;;;5061046;28;20040;-74
2022/03/20 07:46:11;;;;;;;52.95;46.03;;;4.40;99.90;;;;;;5054520;28;20056;-75
2022/03/20 07:48:39;;;;;;;48.90;42.97;;;4.50;99.90;;;;;;5087713;28;20059;-75
2022/03/20 07:51:06;;;;;;;47.80;41.95;;;4.60;99.90;;;;;;5059581;28;20459;-74
2022/03/20 07:53:33;;;;;;;58.13;42.13;;;4.80;99.90;;;;;;5049071;28;20079;-74
2022/03/20 07:56:00;;;;;;;47.95;42.72;;;4.80;99.90;;;;;;5045419;28;20542;-74
2022/03/20 07:58:26;;;;;;;49.00;43.67;;;5.00;99.90;;;;;;5063825;28;20542;-74
2022/03/20 08:00:53;;;;;;;51.03;44.17;;;5.20;99.90;;;;;;5041732;28;20094;-74
2022/03/20 08:03:20;;;;;;;46.13;40.83;;;5.20;99.90;;;;;;5064473;28;20102;-74
2022/03/20 08:05:47;;;;;;;54.20;46.13;;;5.40;99.90;;;;;;5066701;28;20052;-74
2022/03/20 08:08:16;;;;;;;47.08;42.05;;;5.60;99.90;;;;;;5063395;28;20087;-74
2022/03/20 08:10:43;;;;;;;51.53;43.75;;;5.60;99.90;;;;;;5044374;28;20406;-75
2022/03/20 08:13:11;;;;;;;47.85;42.83;;;5.80;99.90;;;;;;5045051;28;20078;-74
2022/03/20 08:15:39;;;;;;;50.75;44.33;;;5.90;99.90;;;;;;5062747;28;20075;-74
2022/03/20 08:18:07;;;;;;;52.67;44.60;;;6.00;99.90;;;;;;5062908;28;20139;-75
2022/03/20 08:20:35;;;;;;;47.22;41.90;;;6.00;99.90;;;;;;5044717;28;20098;-74
2022/03/20 08:23:03;;;;;;;52.72;44.50;;;6.00;99.90;;;;;;5042833;28;20064;-74
2022/03/20 08:25:31;;;;;;;50.40;45.05;;;6.00;99.90;;;;;;5062217;28;20052;-74
2022/03/20 08:27:58;;;;;;;65.35;50.50;;;6.20;99.90;;;;;;5062759;28;20052;-73
2022/03/20 08:30:24;;;;;;;52.47;46.42;;;6.40;99.90;;;;;;5041483;28;20064;-74
2022/03/20 08:32:53;;;;;;;59.70;50.08;;;6.50;99.90;;;;;;5061050;28;20049;-74
2022/03/20 08:35:20;;;;;;;56.33;47.65;;;6.50;99.90;;;;;;5043650;28;20510;-74
2022/03/20 08:37:50;;;;;;;51.00;45.60;;;6.50;99.90;;;;;;5062708;28;20153;-74
2022/03/20 08:40:19;;;;;;;55.15;46.63;;;6.20;99.90;;;;;;5043723;28;20548;-74
2022/03/20 08:42:47;;;;;;;92.65;64.88;;;6.40;99.90;;;;;;5061696;28;20056;-74
2022/03/20 08:45:15;;;;;;;49.25;44.25;;;6.40;99.90;;;;;;5061375;28;20086;-74
2022/03/20 08:47:44;;;;;;;55.35;46.08;;;6.40;99.90;;;;;;5061795;28;20044;-73
2022/03/20 08:50:13;;;;;;;54.17;48.42;;;6.50;99.90;;;;;;5061912;28;20664;-74
2022/03/20 08:52:44;;;;;;;52.33;46.70;;;6.70;99.90;;;;;;5061232;28;20056;-74
2022/03/20 08:55:12;;;;;;;47.72;42.55;;;6.80;99.90;;;;;;5061940;28;20086;-74
2022/03/20 08:57:44;;;;;;;49.05;43.45;;;6.70;99.90;;;;;;5062299;28;20537;-74
2022/03/20 09:00:13;;;;;;;48.75;43.05;;;6.80;99.90;;;;;;5041122;28;20056;-75
2022/03/20 09:02:43;;;;;;;49.33;44.10;;;6.80;99.90;;;;;;5043835;28;20044;-74
2022/03/20 09:05:11;;;;;;;52.17;46.63;;;7.00;99.90;;;;;;5061761;28;20053;-73
2022/03/20 09:07:39;;;;;;;53.92;48.10;;;6.80;99.90;;;;;;5060357;28;20053;-73
2022/03/20 09:10:08;;;;;;;55.38;47.40;;;7.00;99.90;;;;;;5040803;28;20132;-74
2022/03/20 09:12:39;;;;;;;50.50;44.97;;;7.30;99.90;;;;;;5040893;28;20048;-74
2022/03/20 09:15:14;;;;;;;50.78;44.53;;;7.30;99.90;;;;;;5059811;28;20049;-74
2022/03/20 09:20:34;;;;;;;53.25;46.70;;;7.10;99.90;;;;;;5061358;28;20522;-74
2022/03/20 09:23:01;;;;;;;55.80;49.72;;;7.40;99.90;;;;;;5044441;28;20660;-75
2022/03/20 09:25:28;;;;;;;52.03;46.30;;;7.70;99.90;;;;;;5060934;28;20604;-74
2022/03/20 09:28:02;;;;;;;52.85;47.08;;;7.90;99.90;;;;;;5063226;28;20139;-74
2022/03/20 09:30:29;;;;;;;50.05;43.13;;;7.80;99.90;;;;;;5057867;28;20049;-74
2022/03/20 09:32:56;;;;;;;55.83;48.33;;;7.80;99.90;;;;;;5040754;28;20055;-75
2022/03/20 09:35:23;;;;;;;52.33;46.58;;;8.10;99.90;;;;;;5035206;28;20055;-74
2022/03/20 09:37:50;;;;;;;52.40;47.08;;;8.20;99.90;;;;;;5023800;28;20476;-74
2022/03/20 09:40:21;;;;;;;49.72;44.40;;;8.20;99.90;;;;;;5041063;28;20098;-73
2022/03/20 09:42:49;;;;;;;53.67;48.10;;;8.10;99.90;;;;;;5060834;28;20114;-75
2022/03/20 09:45:18;;;;;;;49.20;44.00;;;8.10;99.90;;;;;;5038121;28;20068;-74
2022/03/20 09:47:45;;;;;;;50.72;45.22;;;8.30;99.90;;;;;;5043105;28;20049;-74
2022/03/20 09:50:14;;;;;;;51.25;45.63;;;8.20;99.90;;;;;;5060955;28;20048;-73
2022/03/20 09:52:42;;;;;;;55.17;49.17;;;8.10;99.90;;;;;;5060082;28;20048;-73
2022/03/20 09:55:10;;;;;;;58.47;48.38;;;8.30;99.90;;;;;;5061249;28;20565;-73
2022/03/20 09:57:37;;;;;;;52.83;46.28;;;8.60;99.90;;;;;;5061203;28;20098;-74
2022/03/20 10:00:11;;;;;;;50.33;44.47;;;8.40;99.90;;;;;;5061432;28;20141;-73
2022/03/20 10:02:38;;;;;;;53.63;44.45;;;8.50;99.90;;;;;;5066040;28;20045;-74
2022/03/20 10:05:07;;;;;;;47.45;41.03;;;8.70;99.90;;;;;;5045309;28;20052;-73
2022/03/20 10:07:43;;;;;;;47.92;40.50;;;8.80;99.90;;;;;;5047586;28;20051;-73
2022/03/20 10:10:17;;;;;;;52.42;46.22;;;9.00;99.90;;;;;;5041540;28;20076;-73
2022/03/20 10:12:51;;;;;;;50.55;45.22;;;9.10;99.90;;;;;;5062902;28;20048;-73
2022/03/20 10:15:35;;;;;;;54.47;44.20;;;9.00;99.90;;;;;;5058154;28;20098;-73
2022/03/20 10:18:18;;;;;;;44.83;40.05;;;9.00;99.90;;;;;;5058735;28;20055;-74
2022/03/20 10:20:48;;;;;;;57.65;45.15;;;8.90;99.90;;;;;;5041581;28;20169;-73
2022/03/20 10:23:37;;;;;;;49.05;43.60;;;9.10;99.90;;;;;;5042499;28;20048;-74
2022/03/20 10:26:07;;;;;;;51.67;43.40;;;9.00;99.90;;;;;;5058944;28;20118;-74
2022/03/20 10:28:41;;;;;;;48.20;42.45;;;9.30;99.90;;;;;;5042410;28;20048;-73
2022/03/20 10:31:23;;;;;;;50.83;45.08;;;9.50;99.90;;;;;;5053958;28;20045;-73
2022/03/20 10:34:09;;;;;;;50.88;45.42;;;9.80;99.90;;;;;;5042939;28;20056;-73
2022/03/20 10:36:36;;;;;;;50.65;41.60;;;9.60;99.90;;;;;;5041676;28;20040;-73
2022/03/20 10:39:14;;;;;;;48.00;42.92;;;9.70;99.90;;;;;;5042017;28;20044;-74
2022/03/20 10:41:41;;;;;;;47.72;42.42;;;9.70;99.90;;;;;;5058259;28;20102;-73
2022/03/20 10:44:31;;;;;;;49.90;43.83;;;9.80;99.90;;;;;;5044732;28;20071;-74
2022/03/20 10:47:12;;;;;;;46.22;41.20;;;10.20;99.90;;;;;;5041759;28;20051;-73
2022/03/20 10:50:02;;;;;;;51.70;42.53;;;10.00;99.90;;;;;;5043912;28;20037;-74
2022/03/20 10:52:30;;;;;;;51.78;45.67;;;9.80;99.90;;;;;;5041874;28;20755;-73
2022/03/20 10:54:58;;;;;;;50.95;45.33;;;9.80;99.90;;;;;;5045404;28;20071;-74
2022/03/20 10:57:34;;;;;;;48.53;43.60;;;9.90;99.90;;;;;;5064587;28;20079;-73
2022/03/20 11:00:11;;;;;;;51.30;46.10;;;10.00;99.90;;;;;;5080559;28;20475;-73
2022/03/20 11:02:40;;;;;;;52.80;47.28;;;9.90;99.90;;;;;;5079923;28;20052;-73
2022/03/20 11:05:08;;;;;;;51.67;46.40;;;10.40;99.90;;;;;;5065119;28;20790;-74
2022/03/20 11:07:36;;;;;;;50.00;44.67;;;10.40;99.90;;;;;;5042815;28;20295;-74
2022/03/20 11:10:09;;;;;;;50.00;44.03;;;10.30;99.90;;;;;;5062348;28;20524;-73
2022/03/20 11:12:36;;;;;;;54.78;48.95;;;10.00;99.90;;;;;;5043759;28;20530;-75
2022/03/20 11:15:06;;;;;;;55.45;49.92;;;9.90;99.90;;;;;;5061038;28;20140;-73
2022/03/20 11:17:37;;;;;;;51.85;46.35;;;10.10;99.90;;;;;;5042040;28;20060;-75
2022/03/20 11:20:06;;;;;;;53.45;48.05;;;10.20;99.90;;;;;;5044514;28;20139;-75
2022/03/20 11:22:37;;;;;;;51.03;45.95;;;10.00;99.90;;;;;;5062731;28;20086;-76
2022/03/20 11:25:06;;;;;;;53.28;47.55;;;10.30;99.90;;;;;;5064766;28;20125;-75
2022/03/20 11:27:40;;;;;;;51.83;46.38;;;10.40;99.90;;;;;;5060455;28;20530;-75
2022/03/20 11:30:08;;;;;;;45.05;40.90;;;10.40;99.90;;;;;;5041826;28;20090;-75
2022/03/20 11:32:36;;;;;;;48.75;43.75;;;10.60;99.90;;;;;;5065138;28;20060;-75
2022/03/20 11:35:03;;;;;;;52.60;47.13;;;10.50;99.90;;;;;;5061789;28;20320;-76
2022/03/20 11:37:47;;;;;;;54.42;48.22;;;10.60;99.90;;;;;;5062897;28;20041;-74
2022/03/20 11:40:17;;;;;;;51.53;46.35;;;10.70;99.90;;;;;;5062101;28;20637;-74
2022/03/20 11:42:44;;;;;;;55.28;49.65;;;11.00;99.90;;;;;;5062342;28;20044;-74
2022/03/20 11:45:16;;;;;;;51.25;45.92;;;11.00;99.90;;;;;;5062493;28;20049;-74
2022/03/20 11:47:45;;;;;;;54.55;48.92;;;10.80;99.90;;;;;;5046593;28;20078;-74
2022/03/20 11:50:39;;;;;;;53.20;47.70;;;10.80;99.90;;;;;;5065544;28;20552;-74
2022/03/20 11:53:06;;;;;;;52.35;46.85;;;10.80;99.90;;;;;;5060998;28;20106;-76
2022/03/20 11:55:51;;;;;;;54.15;48.35;;;10.80;99.90;;;;;;5061737;28;20060;-73
2022/03/20 11:58:21;;;;;;;48.63;43.85;;;10.80;99.90;;;;;;5042136;28;20090;-74
2022/03/20 12:01:02;;;;;;;54.38;48.92;;;10.90;99.90;;;;;;5059509;28;20044;-74
2022/03/20 12:03:38;;;;;;;48.28;43.45;;;11.00;99.90;;;;;;5041971;28;20056;-75
2022/03/20 12:06:16;;;;;;;53.30;47.92;;;11.10;99.90;;;;;;5043322;28;20160;-74
2022/03/20 12:09:20;;;;;;;54.88;47.20;;;11.30;99.90;;;;;;5044535;28;20163;-74
2022/03/20 12:11:59;;;;;;;50.20;43.92;;;11.30;99.90;;;;;;5061751;28;20041;-74
2022/03/20 12:14:40;;;;;;;51.85;46.70;;;11.20;99.90;;;;;;5059516;28;20055;-74
2022/03/20 12:17:07;;;;;;;53.85;48.55;;;11.10;99.90;;;;;;5060710;28;20540;-76
2022/03/20 12:19:42;;;;;;;55.40;49.15;;;11.10;99.90;;;;;;5061658;28;20097;-75
2022/03/20 12:22:28;;;;;;;49.95;44.85;;;11.30;99.90;;;;;;5051811;28;20469;-74
2022/03/20 12:25:04;;;;;;;51.67;46.20;;;11.40;99.90;;;;;;5062194;28;20059;-74
2022/03/20 12:27:31;;;;;;;49.13;44.05;;;11.60;99.90;;;;;;5062378;28;20053;-74
2022/03/20 12:30:14;;;;;;;54.45;49.17;;;11.60;99.90;;;;;;5057361;28;20545;-74
2022/03/20 12:32:50;;;;;;;53.05;47.47;;;11.30;99.90;;;;;;5044595;28;20048;-74
2022/03/20 12:35:22;;;;;;;50.28;45.25;;;11.40;99.90;;;;;;5035810;28;20461;-76
2022/03/20 12:37:50;;;;;;;49.10;43.92;;;11.50;99.90;;;;;;5042307;28;20101;-75
2022/03/20 12:40:20;;;;;;;50.17;44.92;;;11.60;99.90;;;;;;5031970;28;20169;-75
2022/03/20 12:43:13;;;;;;;53.20;47.42;;;11.70;99.90;;;;;;5060125;28;20155;-74
2022/03/20 12:45:48;;;;;;;52.38;46.90;;;11.70;99.90;;;;;;5059633;28;20521;-75
2022/03/20 12:48:19;;;;;;;53.10;46.92;;;11.80;99.90;;;;;;5043643;28;20063;-75
2022/03/20 12:50:48;;;;;;;48.03;43.10;;;11.90;99.90;;;;;;5059654;28;20048;-75
2022/03/20 12:53:17;;;;;;;50.85;45.38;;;12.00;99.90;;;;;;5061114;28;20200;-75
2022/03/20 12:55:49;;;;;;;47.80;42.72;;;11.90;99.90;;;;;;5042763;28;20054;-75
2022/03/20 12:58:19;;;;;;;52.40;47.15;;;11.90;99.90;;;;;;5041931;28;20056;-75
2022/03/20 13:00:46;;;;;;;50.08;44.80;;;11.90;99.90;;;;;;5056207;28;20052;-75
2022/03/20 13:03:16;;;;;;;52.83;47.08;;;11.90;99.90;;;;;;5044512;28;20072;-75
2022/03/20 13:05:45;;;;;;;52.08;46.72;;;11.70;99.90;;;;;;5058711;28;20102;-76
2022/03/20 13:08:24;;;;;;;50.55;44.92;;;11.80;99.90;;;;;;5060387;28;20171;-74
2022/03/20 13:10:56;;;;;;;50.13;45.20;;;11.80;99.90;;;;;;5024906;28;20052;-75
2022/03/20 13:13:34;;;;;;;53.63;47.95;;;12.00;99.90;;;;;;5060028;28;20102;-75
2022/03/20 13:16:02;;;;;;;51.53;46.00;;;12.10;99.90;;;;;;5059005;28;20693;-74
2022/03/20 13:18:31;;;;;;;48.28;43.03;;;12.10;99.90;;;;;;5060359;28;20048;-74
2022/03/20 13:21:04;;;;;;;52.22;46.80;;;12.00;99.90;;;;;;5057013;28;20067;-74
2022/03/20 13:23:32;;;;;;;52.17;46.58;;;12.10;99.90;;;;;;5044045;28;20059;-74
2022/03/20 13:26:00;;;;;;;51.30;45.92;;;12.30;99.90;;;;;;5057859;28;20048;-74
2022/03/20 13:28:31;;;;;;;51.95;44.92;;;12.50;99.90;;;;;;5059715;28;20076;-73